createdAt,value
2023-03-14T00:00:35.211Z,9.65
2023-03-14T00:03:20.706Z,9.59
2023-03-14T00:06:07.622Z,9.64
2023-03-14T00:08:52.954Z,9.57
2023-03-14T00:11:38.131Z,9.62
2023-03-14T00:14:23.312Z,9.62
2023-03-14T00:17:08.467Z,9.61
2023-03-14T00:19:54.979Z,9.59
2023-03-14T00:22:41.395Z,9.53
2023-03-14T00:25:26.376Z,9.60
2023-03-14T00:28:11.714Z,9.56
2023-03-14T00:30:57.148Z,9.54
2023-03-14T00:33:43.389Z,9.52
2023-03-14T00:36:28.702Z,9.52
2023-03-14T00:39:13.868Z,9.53
2023-03-14T00:41:59.218Z,9.51
2023-03-14T00:44:44.408Z,9.50
2023-03-14T00:47:29.438Z,9.47
2023-03-14T00:50:14.857Z,9.46
2023-03-14T00:52:59.892Z,9.46
2023-03-14T00:55:45.496Z,9.45
2023-03-14T00:58:30.623Z,9.46
2023-03-14T01:01:19.193Z,9.35
2023-03-14T01:04:04.367Z,9.42
2023-03-14T01:06:49.682Z,9.47
2023-03-14T01:09:34.971Z,9.39
2023-03-14T01:12:20.078Z,9.46
2023-03-14T01:15:05.908Z,9.45
2023-03-14T01:17:51.132Z,9.43
2023-03-14T01:20:38.251Z,9.42
2023-03-14T01:23:23.344Z,9.42
2023-03-14T01:26:13.653Z,9.37
2023-03-14T01:28:58.938Z,9.37
2023-03-14T01:31:44.378Z,9.35
2023-03-14T01:34:29.450Z,9.31
2023-03-14T01:37:14.484Z,9.34
2023-03-14T01:39:59.752Z,9.37
2023-03-14T01:42:55.938Z,9.34
2023-03-14T01:46:16.008Z,9.28
2023-03-14T01:49:10.156Z,9.22
2023-03-14T01:52:03.791Z,9.21
2023-03-14T01:54:54.130Z,9.27
2023-03-14T01:58:13.186Z,9.25
2023-03-14T02:00:59.841Z,9.25
2023-03-14T02:03:56.003Z,9.27
2023-03-14T02:07:08.409Z,9.19
2023-03-14T02:09:54.257Z,8.95
2023-03-14T02:12:40.195Z,8.75
2023-03-14T02:15:25.652Z,8.51
2023-03-14T02:18:12.613Z,8.48
2023-03-14T02:21:23.369Z,8.32
2023-03-14T02:24:26.992Z,8.29
2023-03-14T02:27:20.955Z,8.11
2023-03-14T02:30:13.154Z,8.06
2023-03-14T02:33:11.159Z,7.98
2023-03-14T02:36:02.507Z,7.93
2023-03-14T02:39:15.149Z,7.83
2023-03-14T02:42:00.320Z,7.77
2023-03-14T02:44:53.336Z,7.79
2023-03-14T02:47:44.015Z,7.68
2023-03-14T02:50:34.413Z,7.77
2023-03-14T02:53:24.697Z,7.73
2023-03-14T02:56:10.685Z,7.68
2023-03-14T02:58:56.131Z,7.63
2023-03-14T03:01:41.511Z,7.68
2023-03-14T03:04:26.855Z,7.65
2023-03-14T03:07:11.714Z,7.64
2023-03-14T03:09:56.852Z,7.50
2023-03-14T03:12:41.836Z,7.40
2023-03-14T03:15:27.684Z,7.29
2023-03-14T03:18:13.227Z,7.20
2023-03-14T03:21:01.742Z,7.07
2023-03-14T03:23:46.792Z,6.96
2023-03-14T03:26:31.881Z,6.88
2023-03-14T03:29:17.247Z,6.82
2023-03-14T03:32:02.789Z,6.64
2023-03-14T03:34:47.943Z,6.61
2023-03-14T03:37:34.070Z,6.59
2023-03-14T03:40:18.996Z,6.45
2023-03-14T03:43:04.950Z,6.49
2023-03-14T03:45:50.151Z,6.51
2023-03-14T03:48:36.162Z,6.45
2023-03-14T03:51:21.455Z,6.42
2023-03-14T03:54:06.641Z,6.48
2023-03-14T03:56:52.482Z,6.39
2023-03-14T03:59:39.714Z,6.35
2023-03-14T04:02:25.046Z,6.38
2023-03-14T04:05:10.420Z,6.36
2023-03-14T04:07:55.609Z,6.16
2023-03-14T04:10:40.583Z,6.09
2023-03-14T04:13:26.899Z,6.06
2023-03-14T04:16:21.435Z,6.03
2023-03-14T04:19:06.852Z,6.05
2023-03-14T04:21:52.022Z,6.00
2023-03-14T04:24:37.588Z,5.99
2023-03-14T04:27:22.934Z,5.90
2023-03-14T04:30:09.138Z,5.83
2023-03-14T04:32:54.334Z,5.77
2023-03-14T04:35:39.834Z,5.77
2023-03-14T04:38:25.285Z,5.72
2023-03-14T04:41:10.477Z,5.72
2023-03-14T04:43:55.528Z,5.67
2023-03-14T04:46:40.649Z,5.65
2023-03-14T04:49:26.108Z,5.62
2023-03-14T04:52:11.790Z,5.61
2023-03-14T04:54:56.759Z,5.51
2023-03-14T04:57:42.055Z,5.44
2023-03-14T05:00:27.154Z,5.39
2023-03-14T05:03:12.467Z,5.43
2023-03-14T05:05:59.522Z,5.43
2023-03-14T05:08:44.606Z,5.40
2023-03-14T05:11:30.437Z,5.34
2023-03-14T05:14:15.706Z,5.33
2023-03-14T05:17:00.881Z,5.30
2023-03-14T05:19:45.802Z,5.29
2023-03-14T05:22:31.162Z,5.27
2023-03-14T05:25:16.518Z,5.15
2023-03-14T05:28:01.891Z,5.18
2023-03-14T05:30:47.358Z,5.20
2023-03-14T05:33:32.654Z,5.12
2023-03-14T05:36:18.181Z,4.95
2023-03-14T05:39:03.895Z,5.00
2023-03-14T05:41:48.882Z,4.88
2023-03-14T05:44:34.203Z,4.92
2023-03-14T05:47:19.379Z,4.80
2023-03-14T05:50:04.829Z,4.84
2023-03-14T05:52:49.783Z,4.84
2023-03-14T05:55:34.744Z,4.82
2023-03-14T05:58:20.082Z,4.79
2023-03-14T06:01:06.938Z,4.80
2023-03-14T06:03:52.404Z,4.79
2023-03-14T06:06:37.826Z,4.70
2023-03-14T06:09:24.362Z,4.64
2023-03-14T06:12:09.367Z,4.62
2023-03-14T06:14:54.820Z,4.68
2023-03-14T06:17:40.317Z,4.69
2023-03-14T06:20:25.584Z,4.73
2023-03-14T06:23:11.041Z,4.72
2023-03-14T06:25:56.356Z,4.81
2023-03-14T06:28:41.537Z,4.82
2023-03-14T06:31:26.835Z,4.71
2023-03-14T06:34:12.043Z,4.82
2023-03-14T06:36:57.432Z,4.79
2023-03-14T06:39:42.660Z,4.74
2023-03-14T06:42:28.024Z,4.70
2023-03-14T06:45:14.227Z,4.82
2023-03-14T06:47:59.556Z,4.86
2023-03-14T06:50:44.815Z,4.92
2023-03-14T06:53:30.108Z,4.90
2023-03-14T06:56:15.393Z,4.95
2023-03-14T06:59:00.650Z,5.01
2023-03-14T07:01:45.818Z,5.05
2023-03-14T07:04:31.083Z,5.05
2023-03-14T07:07:17.530Z,5.19
2023-03-14T07:10:02.730Z,5.20
2023-03-14T07:12:48.214Z,5.18
2023-03-14T07:15:33.693Z,5.32
2023-03-14T07:18:19.041Z,5.28
2023-03-14T07:21:04.378Z,5.41
2023-03-14T07:23:49.521Z,5.46
2023-03-14T07:26:34.967Z,5.49
2023-03-14T07:29:20.396Z,5.46
2023-03-14T07:32:05.720Z,5.50
2023-03-14T07:34:51.260Z,5.49
2023-03-14T07:37:36.862Z,5.48
2023-03-14T07:40:22.124Z,5.50
2023-03-14T07:43:07.491Z,5.52
2023-03-14T07:45:58.972Z,5.56
2023-03-14T07:48:44.236Z,5.61
2023-03-14T07:51:29.594Z,5.61
2023-03-14T07:54:14.868Z,5.63
2023-03-14T07:57:01.666Z,5.68
2023-03-14T07:59:46.727Z,5.71
2023-03-14T08:02:31.946Z,5.72
2023-03-14T08:05:17.797Z,5.75
2023-03-14T08:08:03.907Z,5.78
2023-03-14T08:10:48.948Z,5.76
2023-03-14T08:13:34.136Z,5.72
2023-03-14T08:16:20.314Z,5.81
2023-03-14T08:19:05.733Z,5.79
2023-03-14T08:21:50.939Z,5.78
2023-03-14T08:24:36.279Z,5.81
2023-03-14T08:27:21.625Z,5.79
2023-03-14T08:30:08.442Z,5.74
2023-03-14T08:32:53.773Z,5.87
2023-03-14T08:35:40.417Z,5.90
2023-03-14T08:38:25.520Z,5.74
2023-03-14T08:41:11.396Z,5.78
2023-03-14T08:43:56.264Z,5.81
2023-03-14T08:46:41.619Z,5.84
2023-03-14T08:49:26.927Z,5.81
2023-03-14T08:52:12.534Z,5.75
2023-03-14T08:54:58.277Z,5.76
2023-03-14T08:57:43.325Z,5.78
2023-03-14T09:00:28.486Z,5.71
2023-03-14T09:03:14.182Z,5.77
2023-03-14T09:06:06.331Z,5.69
2023-03-14T09:08:51.518Z,5.73
2023-03-14T09:11:36.737Z,5.72
2023-03-14T09:14:23.154Z,5.70
2023-03-14T09:17:08.853Z,5.75
2023-03-14T09:19:54.376Z,5.75
2023-03-14T09:22:39.586Z,5.81
2023-03-14T09:25:24.636Z,5.72
2023-03-14T09:28:09.901Z,5.64
2023-03-14T09:30:55.533Z,5.82
2023-03-14T09:33:40.412Z,5.82
2023-03-14T09:36:25.917Z,5.76
2023-03-14T09:39:12.481Z,5.73
2023-03-14T09:42:02.381Z,5.71
2023-03-14T09:44:57.458Z,5.84
2023-03-14T09:47:56.516Z,5.72
2023-03-14T09:50:49.830Z,5.69
2023-03-14T09:53:44.392Z,5.69
2023-03-14T09:56:33.437Z,5.79
2023-03-14T09:59:18.845Z,5.89
2023-03-14T10:02:15.846Z,6.07
2023-03-14T10:05:06.663Z,6.13
2023-03-14T10:07:52.142Z,6.22
2023-03-14T10:10:37.436Z,6.19
2023-03-14T10:13:27.113Z,6.22
2023-03-14T10:16:12.651Z,6.09
2023-03-14T10:19:04.224Z,6.16
2023-03-14T10:21:55.106Z,6.10
2023-03-14T10:24:47.057Z,5.78
2023-03-14T10:27:35.095Z,5.65
2023-03-14T10:30:46.130Z,5.42
2023-03-14T10:33:34.243Z,5.37
2023-03-14T10:36:27.410Z,5.31
2023-03-14T10:39:18.764Z,5.33
2023-03-14T10:42:32.679Z,5.41
2023-03-14T10:45:29.727Z,5.46
2023-03-14T10:48:44.077Z,5.69
2023-03-14T10:51:30.815Z,5.75
2023-03-14T10:54:24.907Z,6.05
2023-03-14T10:57:12.426Z,6.16
2023-03-14T11:00:00.108Z,6.29
2023-03-14T11:03:14.932Z,6.28
2023-03-14T11:06:16.784Z,6.44
2023-03-14T11:09:12.096Z,6.47
2023-03-14T11:12:10.885Z,6.70
2023-03-14T11:15:06.698Z,6.78
2023-03-14T11:18:05.335Z,6.88
2023-03-14T11:21:16.924Z,6.93
2023-03-14T11:24:20.532Z,6.89
2023-03-14T11:27:19.555Z,7.04
2023-03-14T11:30:23.461Z,7.34
2023-03-14T11:33:16.868Z,7.47
2023-03-14T11:36:10.145Z,7.65
2023-03-14T11:39:00.777Z,7.79
2023-03-14T11:41:54.870Z,8.05
2023-03-14T11:44:41.885Z,8.24
2023-03-14T11:47:40.855Z,8.52
2023-03-14T11:50:30.915Z,8.60
2023-03-14T11:53:39.123Z,8.52
2023-03-14T11:56:32.466Z,8.56
2023-03-14T11:59:26.265Z,8.40
2023-03-14T12:02:38.514Z,8.09
2023-03-14T12:05:29.160Z,7.85
2023-03-14T12:08:30.613Z,8.10
2023-03-14T12:11:21.649Z,8.51
2023-03-14T12:14:18.933Z,9.13
2023-03-14T12:17:07.379Z,9.22
2023-03-14T12:20:26.076Z,9.16
2023-03-14T12:23:13.165Z,9.27
2023-03-14T12:26:13.688Z,9.66
2023-03-14T12:28:58.728Z,9.70
2023-03-14T12:31:47.249Z,9.98
2023-03-14T12:34:43.107Z,10.20
2023-03-14T12:37:46.150Z,10.30
2023-03-14T12:40:40.830Z,9.84
2023-03-14T12:43:29.566Z,10.31
2023-03-14T12:46:22.951Z,9.81
2023-03-14T12:49:10.231Z,10.27
2023-03-14T12:52:01.354Z,10.58
2023-03-14T12:54:58.336Z,10.53
2023-03-14T12:57:48.379Z,9.92
2023-03-14T13:00:36.636Z,9.51
2023-03-14T13:03:28.294Z,9.75
2023-03-14T13:06:13.827Z,10.28
2023-03-14T13:08:58.787Z,10.75
2023-03-14T13:11:44.200Z,10.44
2023-03-14T13:14:32.102Z,10.00
2023-03-14T13:17:34.445Z,9.77
2023-03-14T13:20:28.527Z,9.60
2023-03-14T13:23:26.307Z,9.72
2023-03-14T13:26:15.984Z,9.65
2023-03-14T13:29:01.014Z,9.54
2023-03-14T13:31:48.056Z,10.13
2023-03-14T13:34:35.424Z,10.55
2023-03-14T13:37:23.072Z,10.54
2023-03-14T13:40:27.145Z,10.04
2023-03-14T13:43:26.509Z,10.10
2023-03-14T13:46:22.914Z,10.24
2023-03-14T13:49:13.717Z,9.87
2023-03-14T13:51:59.429Z,9.70
2023-03-14T13:54:44.465Z,9.67
2023-03-14T13:57:43.200Z,9.41
2023-03-14T14:00:29.117Z,9.37
2023-03-14T14:03:14.536Z,9.32
2023-03-14T14:06:00.004Z,9.24
2023-03-14T14:08:46.167Z,9.77
2023-03-14T14:11:48.807Z,10.16
2023-03-14T14:14:50.260Z,10.83
2023-03-14T14:17:44.756Z,11.13
2023-03-14T14:20:36.033Z,11.77
2023-03-14T14:23:29.973Z,12.29
2023-03-14T14:26:18.776Z,12.55
2023-03-14T14:29:06.760Z,12.58
2023-03-14T14:32:02.600Z,12.95
2023-03-14T14:35:10.878Z,13.11
2023-03-14T14:37:55.910Z,13.00
2023-03-14T14:40:46.607Z,12.98
2023-03-14T14:43:37.359Z,12.64
2023-03-14T14:46:22.715Z,12.30
2023-03-14T14:49:14.628Z,12.72
2023-03-14T14:52:07.390Z,13.24
2023-03-14T14:54:55.755Z,13.57
2023-03-14T14:57:42.371Z,13.95
2023-03-14T15:00:28.626Z,14.02
2023-03-14T15:03:16.719Z,14.06
2023-03-14T15:06:03.188Z,13.78
2023-03-14T15:08:49.619Z,13.20
2023-03-14T15:11:34.666Z,12.95
2023-03-14T15:14:20.085Z,13.06
2023-03-14T15:17:06.794Z,12.33
2023-03-14T15:19:51.838Z,11.62
2023-03-14T15:22:36.780Z,11.19
2023-03-14T15:25:47.427Z,10.78
2023-03-14T15:28:30.856Z,10.59
2023-03-14T15:31:18.854Z,10.75
2023-03-14T15:34:04.389Z,10.95
2023-03-14T15:36:49.675Z,10.89
2023-03-14T15:39:35.974Z,10.78
2023-03-14T15:42:20.959Z,10.77
2023-03-14T15:45:07.126Z,10.71
2023-03-14T15:47:52.141Z,10.72
2023-03-14T15:50:37.493Z,10.57
2023-03-14T15:53:23.194Z,10.50
2023-03-14T15:56:12.842Z,10.35
2023-03-14T15:58:58.038Z,10.31
2023-03-14T16:01:43.146Z,10.27
2023-03-14T16:04:30.320Z,10.14
2023-03-14T16:07:15.958Z,9.95
2023-03-14T16:10:01.334Z,9.78
2023-03-14T16:12:46.739Z,9.65
2023-03-14T16:15:32.029Z,9.59
2023-03-14T16:18:21.904Z,9.61
2023-03-14T16:21:12.442Z,9.56
2023-03-14T16:23:57.650Z,9.48
2023-03-14T16:26:42.822Z,9.27
2023-03-14T16:29:28.193Z,9.21
2023-03-14T16:32:13.336Z,9.11
2023-03-14T16:34:58.657Z,9.18
2023-03-14T16:37:44.041Z,9.11
2023-03-14T16:40:29.456Z,9.05
2023-03-14T16:43:16.237Z,9.06
2023-03-14T16:46:02.081Z,9.00
2023-03-14T16:48:47.266Z,9.01
2023-03-14T16:51:33.092Z,9.01
2023-03-14T16:54:18.142Z,9.04
2023-03-14T16:57:03.627Z,9.03
2023-03-14T16:59:50.633Z,8.93
2023-03-14T17:02:35.626Z,8.92
2023-03-14T17:05:22.295Z,8.93
2023-03-14T17:08:07.477Z,8.93
2023-03-14T17:10:52.823Z,9.08
2023-03-14T17:13:39.073Z,8.91
2023-03-14T17:16:24.956Z,8.78
2023-03-14T17:19:10.102Z,8.56
2023-03-14T17:22:09.388Z,8.55
2023-03-14T17:25:01.473Z,8.39
2023-03-14T17:27:46.561Z,8.31
2023-03-14T17:30:32.147Z,8.27
2023-03-14T17:33:17.897Z,8.19
2023-03-14T17:36:04.104Z,8.11
2023-03-14T17:38:49.574Z,8.04
2023-03-14T17:41:34.844Z,7.95
2023-03-14T17:44:20.195Z,7.85
2023-03-14T17:47:06.583Z,7.72
2023-03-14T17:49:51.908Z,7.67
2023-03-14T17:52:37.768Z,7.62
2023-03-14T17:55:22.746Z,7.59
2023-03-14T17:58:07.910Z,7.48
2023-03-14T18:00:53.127Z,7.39
2023-03-14T18:03:38.768Z,7.36
2023-03-14T18:06:23.957Z,7.27
2023-03-14T18:09:09.239Z,7.27
2023-03-14T18:12:07.116Z,7.22
2023-03-14T18:14:53.703Z,7.18
2023-03-14T18:17:40.536Z,7.13
2023-03-14T18:20:25.508Z,7.00
2023-03-14T18:23:10.798Z,6.89
2023-03-14T18:25:59.146Z,6.86
2023-03-14T18:28:44.888Z,6.74
2023-03-14T18:31:31.460Z,6.81
2023-03-14T18:34:16.970Z,6.78
2023-03-14T18:37:02.547Z,6.67
2023-03-14T18:39:47.668Z,6.67
2023-03-14T18:42:32.637Z,6.69
2023-03-14T18:45:17.855Z,6.81
2023-03-14T18:48:03.893Z,6.78
2023-03-14T18:50:48.887Z,6.72
2023-03-14T18:53:33.754Z,6.69
2023-03-14T18:56:18.998Z,6.63
2023-03-14T18:59:04.253Z,6.63
2023-03-14T19:01:49.333Z,6.49
2023-03-14T19:04:34.369Z,6.50
2023-03-14T19:07:20.634Z,6.42
2023-03-14T19:10:06.316Z,6.38
2023-03-14T19:12:51.481Z,6.32
2023-03-14T19:15:36.753Z,6.38
2023-03-14T19:18:22.133Z,6.31
2023-03-14T19:21:10.334Z,6.31
2023-03-14T19:23:55.681Z,6.30
2023-03-14T19:26:40.872Z,6.26
2023-03-14T19:29:26.131Z,6.23
2023-03-14T19:32:12.375Z,6.15
2023-03-14T19:34:57.941Z,6.16
2023-03-14T19:37:45.411Z,6.15
2023-03-14T19:40:31.213Z,6.06
2023-03-14T19:43:17.215Z,6.03
2023-03-14T19:46:02.395Z,6.09
2023-03-14T19:48:48.906Z,6.06
2023-03-14T19:51:35.625Z,6.07
2023-03-14T19:54:22.520Z,5.96
2023-03-14T19:57:07.621Z,6.01
2023-03-14T19:59:52.804Z,6.00
2023-03-14T20:02:38.382Z,5.90
2023-03-14T20:05:24.683Z,5.84
2023-03-14T20:08:10.110Z,5.81
2023-03-14T20:10:55.572Z,5.84
2023-03-14T20:13:41.118Z,5.82
2023-03-14T20:16:26.856Z,5.80
2023-03-14T20:19:13.352Z,5.75
2023-03-14T20:21:58.609Z,5.73
2023-03-14T20:24:44.130Z,5.72
2023-03-14T20:27:29.160Z,5.73
2023-03-14T20:30:18.696Z,5.75
2023-03-14T20:33:04.665Z,5.78
2023-03-14T20:35:59.130Z,5.79
2023-03-14T20:38:44.442Z,5.68
2023-03-14T20:41:29.855Z,5.76
2023-03-14T20:44:15.238Z,5.74
2023-03-14T20:47:00.833Z,5.72
2023-03-14T20:49:46.292Z,5.71
2023-03-14T20:52:31.463Z,5.75
2023-03-14T20:55:16.519Z,5.70
2023-03-14T20:58:03.036Z,5.69
2023-03-14T21:00:50.321Z,5.69
2023-03-14T21:03:35.739Z,5.63
2023-03-14T21:06:22.310Z,5.57
2023-03-14T21:09:07.562Z,5.63
2023-03-14T21:11:53.072Z,5.61
2023-03-14T21:14:38.509Z,5.62
2023-03-14T21:17:23.821Z,5.60
2023-03-14T21:20:11.050Z,5.53
2023-03-14T21:22:55.999Z,5.62
2023-03-14T21:25:44.552Z,5.55
2023-03-14T21:28:30.086Z,5.59
2023-03-14T21:31:15.372Z,5.56
2023-03-14T21:34:00.719Z,5.61
2023-03-14T21:36:48.313Z,5.57
2023-03-14T21:39:33.807Z,5.57
2023-03-14T21:42:19.221Z,5.47
2023-03-14T21:45:05.145Z,5.36
2023-03-14T21:47:50.327Z,5.40
2023-03-14T21:50:35.426Z,5.51
2023-03-14T21:53:21.181Z,5.53
2023-03-14T21:56:06.900Z,5.47
2023-03-14T21:58:52.002Z,5.45
2023-03-14T22:01:37.180Z,5.57
2023-03-14T22:04:26.497Z,5.49
2023-03-14T22:07:14.986Z,5.36
2023-03-14T22:10:01.251Z,5.25
2023-03-14T22:12:46.477Z,5.21
2023-03-14T22:15:31.540Z,5.08
2023-03-14T22:18:17.691Z,5.05
2023-03-14T22:21:02.744Z,5.09
2023-03-14T22:23:49.918Z,5.12
2023-03-14T22:26:34.927Z,5.16
2023-03-14T22:29:20.171Z,5.18
2023-03-14T22:32:06.026Z,5.23
2023-03-14T22:34:50.819Z,5.25
2023-03-14T22:37:36.593Z,5.21
2023-03-14T22:40:21.776Z,5.19
2023-03-14T22:43:07.241Z,5.16
2023-03-14T22:45:59.582Z,5.14
2023-03-14T22:48:44.980Z,5.10
2023-03-14T22:51:30.074Z,5.14
2023-03-14T22:54:15.321Z,5.08
2023-03-14T22:57:00.302Z,5.07
2023-03-14T22:59:45.476Z,5.11
2023-03-14T23:02:30.622Z,5.15
2023-03-14T23:05:15.845Z,5.12
2023-03-14T23:08:01.203Z,5.05
2023-03-14T23:10:46.607Z,5.08
2023-03-14T23:13:33.480Z,5.05
2023-03-14T23:16:23.242Z,5.04
2023-03-14T23:19:15.894Z,5.00
2023-03-14T23:22:01.212Z,4.95
2023-03-14T23:24:48.692Z,4.92
2023-03-14T23:27:34.793Z,4.93
2023-03-14T23:30:21.018Z,4.93
2023-03-14T23:33:06.768Z,4.94
2023-03-14T23:35:54.393Z,4.90
2023-03-14T23:38:41.965Z,4.90
2023-03-14T23:41:27.202Z,4.93
2023-03-14T23:44:15.263Z,4.85
2023-03-14T23:47:00.204Z,4.78
2023-03-14T23:49:45.238Z,4.78
2023-03-14T23:52:30.451Z,4.76
2023-03-14T23:55:15.630Z,4.76
2023-03-14T23:58:02.839Z,4.77
